sensor_id;sensor_type;location;lat;lon;timestamp;temperature;humidity
1181;DHT22;579;52.046;8.532;2023-01-15T00:02:09;9.00;1.00
1181;DHT22;579;52.046;8.532;2023-01-15T00:04:37;9.00;1.00
1181;DHT22;579;52.046;8.532;2023-01-15T00:07:03;9.20;1.00
1181;DHT22;579;52.046;8.532;2023-01-15T00:09:29;8.90;1.00
1181;DHT22;579;52.046;8.532;2023-01-15T00:17:01;7.80;1.00
1181;DHT22;579;52.046;8.532;2023-01-15T00:19:28;7.70;1.00
1181;DHT22;579;52.046;8.532;2023-01-15T00:21:54;7.50;1.00
1181;DHT22;579;52.046;8.532;2023-01-15T00:24:21;7.40;1.00
1181;DHT22;579;52.046;8.532;2023-01-15T00:27:08;7.20;1.00
1181;DHT22;579;52.046;8.532;2023-01-15T00:29:56;7.20;1.00
1181;DHT22;579;52.046;8.532;2023-01-15T00:37:01;7.30;1.00
1181;DHT22;579;52.046;8.532;2023-01-15T00:39:28;7.20;1.00
1181;DHT22;579;52.046;8.532;2023-01-15T00:41:55;7.20;1.00
1181;DHT22;579;52.046;8.532;2023-01-15T00:44:21;7.10;1.00
1181;DHT22;579;52.046;8.532;2023-01-15T00:46:47;7.00;1.00
1181;DHT22;579;52.046;8.532;2023-01-15T00:49:14;6.80;1.00
1181;DHT22;579;52.046;8.532;2023-01-15T00:51:40;6.60;1.00
1181;DHT22;579;52.046;8.532;2023-01-15T00:59:12;6.20;1.00
1181;DHT22;579;52.046;8.532;2023-01-15T01:01:38;6.30;1.00
1181;DHT22;579;52.046;8.532;2023-01-15T01:04:05;6.10;1.00
1181;DHT22;579;52.046;8.532;2023-01-15T01:06:31;6.20;1.00
1181;DHT22;579;52.046;8.532;2023-01-15T01:08:57;6.10;1.00
1181;DHT22;579;52.046;8.532;2023-01-15T01:11:24;5.80;1.00
1181;DHT22;579;52.046;8.532;2023-01-15T01:13:52;5.70;1.00
1181;DHT22;579;52.046;8.532;2023-01-15T01:21:24;5.90;1.00
1181;DHT22;579;52.046;8.532;2023-01-15T01:23:51;5.80;1.00
1181;DHT22;579;52.046;8.532;2023-01-15T01:26:18;5.80;1.00
1181;DHT22;579;52.046;8.532;2023-01-15T01:28:48;6.00;1.00
1181;DHT22;579;52.046;8.532;2023-01-15T01:31:14;6.10;1.00
1181;DHT22;579;52.046;8.532;2023-01-15T01:33:40;6.00;1.00
1181;DHT22;579;52.046;8.532;2023-01-15T01:36:06;6.10;1.00
1181;DHT22;579;52.046;8.532;2023-01-15T01:43:52;6.20;1.00
1181;DHT22;579;52.046;8.532;2023-01-15T01:46:21;6.10;1.00
1181;DHT22;579;52.046;8.532;2023-01-15T01:48:48;6.10;1.00
1181;DHT22;579;52.046;8.532;2023-01-15T01:51:16;6.30;1.00
1181;DHT22;579;52.046;8.532;2023-01-15T01:53:43;6.30;1.00
1181;DHT22;579;52.046;8.532;2023-01-15T01:56:10;6.20;1.00
1181;DHT22;579;52.046;8.532;2023-01-15T01:58:37;6.20;1.00
1181;DHT22;579;52.046;8.532;2023-01-15T02:06:08;7.50;1.00
1181;DHT22;579;52.046;8.532;2023-01-15T02:08:35;6.10;1.00
1181;DHT22;579;52.046;8.532;2023-01-15T02:11:05;6.00;1.00
1181;DHT22;579;52.046;8.532;2023-01-15T02:13:36;6.10;1.00
1181;DHT22;579;52.046;8.532;2023-01-15T02:16:10;5.90;1.00
1181;DHT22;579;52.046;8.532;2023-01-15T02:18:44;6.00;1.00
1181;DHT22;579;52.046;8.532;2023-01-15T02:21:22;6.10;1.00
1181;DHT22;579;52.046;8.532;2023-01-15T02:28:12;6.40;1.00
1181;DHT22;579;52.046;8.532;2023-01-15T02:30:42;6.20;1.00
1181;DHT22;579;52.046;8.532;2023-01-15T02:33:13;6.10;1.00
1181;DHT22;579;52.046;8.532;2023-01-15T02:35:44;6.20;1.00
1181;DHT22;579;52.046;8.532;2023-01-15T02:38:17;6.10;1.00
1181;DHT22;579;52.046;8.532;2023-01-15T02:40:46;6.30;1.00
1181;DHT22;579;52.046;8.532;2023-01-15T02:43:16;6.30;1.00
1181;DHT22;579;52.046;8.532;2023-01-15T02:50:54;6.10;1.00
1181;DHT22;579;52.046;8.532;2023-01-15T02:53:26;6.10;1.00
1181;DHT22;579;52.046;8.532;2023-01-15T02:55:57;6.10;1.00
1181;DHT22;579;52.046;8.532;2023-01-15T02:58:30;6.20;1.00
1181;DHT22;579;52.046;8.532;2023-01-15T03:01:01;6.30;1.00
1181;DHT22;579;52.046;8.532;2023-01-15T03:03:37;6.20;1.00
1181;DHT22;579;52.046;8.532;2023-01-15T03:06:11;6.30;1.00
1181;DHT22;579;52.046;8.532;2023-01-15T03:13:16;6.30;1.00
1181;DHT22;579;52.046;8.532;2023-01-15T03:15:51;6.20;1.00
1181;DHT22;579;52.046;8.532;2023-01-15T03:18:44;6.20;1.00
1181;DHT22;579;52.046;8.532;2023-01-15T03:21:15;6.20;1.00
1181;DHT22;579;52.046;8.532;2023-01-15T03:23:46;6.40;1.00
1181;DHT22;579;52.046;8.532;2023-01-15T03:26:15;6.50;1.00
1181;DHT22;579;52.046;8.532;2023-01-15T03:28:42;6.80;1.00
1181;DHT22;579;52.046;8.532;2023-01-15T03:31:27;6.50;1.00
1181;DHT22;579;52.046;8.532;2023-01-15T03:33:54;6.40;1.00
1181;DHT22;579;52.046;8.532;2023-01-15T03:36:20;6.50;1.00
1181;DHT22;579;52.046;8.532;2023-01-15T03:38:47;6.50;1.00
1181;DHT22;579;52.046;8.532;2023-01-15T03:41:19;6.40;1.00
1181;DHT22;579;52.046;8.532;2023-01-15T03:43:56;6.50;1.00
1181;DHT22;579;52.046;8.532;2023-01-15T03:49:36;6.80;1.00
1181;DHT22;579;52.046;8.532;2023-01-15T03:52:12;6.80;1.00
1181;DHT22;579;52.046;8.532;2023-01-15T03:54:46;6.90;1.00
1181;DHT22;579;52.046;8.532;2023-01-15T03:57:20;6.70;1.00
1181;DHT22;579;52.046;8.532;2023-01-15T03:59:53;6.70;1.00
1181;DHT22;579;52.046;8.532;2023-01-15T04:02:21;6.60;1.00
1181;DHT22;579;52.046;8.532;2023-01-15T04:07:43;7.00;1.00
1181;DHT22;579;52.046;8.532;2023-01-15T04:10:11;6.90;1.00
1181;DHT22;579;52.046;8.532;2023-01-15T04:12:37;6.90;1.00
1181;DHT22;579;52.046;8.532;2023-01-15T04:15:04;6.60;1.00
1181;DHT22;579;52.046;8.532;2023-01-15T04:17:31;6.60;1.00
1181;DHT22;579;52.046;8.532;2023-01-15T04:19:57;6.50;1.00
1181;DHT22;579;52.046;8.532;2023-01-15T04:22:24;6.60;1.00
1181;DHT22;579;52.046;8.532;2023-01-15T04:29:53;6.80;1.00
1181;DHT22;579;52.046;8.532;2023-01-15T04:32:19;6.90;1.00
1181;DHT22;579;52.046;8.532;2023-01-15T04:34:46;6.80;1.00
1181;DHT22;579;52.046;8.532;2023-01-15T04:37:12;6.90;1.00
1181;DHT22;579;52.046;8.532;2023-01-15T04:39:39;6.80;1.00
1181;DHT22;579;52.046;8.532;2023-01-15T04:42:05;6.80;1.00
1181;DHT22;579;52.046;8.532;2023-01-15T04:44:49;6.80;1.00
1181;DHT22;579;52.046;8.532;2023-01-15T04:52:21;6.90;1.00
1181;DHT22;579;52.046;8.532;2023-01-15T04:54:47;7.10;1.00
1181;DHT22;579;52.046;8.532;2023-01-15T04:57:13;7.00;1.00
1181;DHT22;579;52.046;8.532;2023-01-15T04:59:40;7.00;1.00
1181;DHT22;579;52.046;8.532;2023-01-15T05:02:07;7.00;1.00
1181;DHT22;579;52.046;8.532;2023-01-15T05:04:33;6.90;1.00
1181;DHT22;579;52.046;8.532;2023-01-15T05:07:00;6.80;1.00
1181;DHT22;579;52.046;8.532;2023-01-15T05:14:31;6.90;1.00
1181;DHT22;579;52.046;8.532;2023-01-15T05:16:57;6.90;1.00
1181;DHT22;579;52.046;8.532;2023-01-15T05:19:24;6.80;1.00
1181;DHT22;579;52.046;8.532;2023-01-15T05:21:50;6.90;1.00
1181;DHT22;579;52.046;8.532;2023-01-15T05:24:17;7.00;1.00
1181;DHT22;579;52.046;8.532;2023-01-15T05:26:44;7.10;1.00
1181;DHT22;579;52.046;8.532;2023-01-15T05:29:11;6.80;1.00
1181;DHT22;579;52.046;8.532;2023-01-15T05:36:41;6.90;1.00
1181;DHT22;579;52.046;8.532;2023-01-15T05:39:07;7.20;1.00
1181;DHT22;579;52.046;8.532;2023-01-15T05:41:34;7.10;1.00
1181;DHT22;579;52.046;8.532;2023-01-15T05:44:18;7.00;1.00
1181;DHT22;579;52.046;8.532;2023-01-15T05:46:46;6.80;1.00
1181;DHT22;579;52.046;8.532;2023-01-15T05:49:15;7.00;1.00
1181;DHT22;579;52.046;8.532;2023-01-15T05:51:43;7.10;1.00
1181;DHT22;579;52.046;8.532;2023-01-15T05:59:19;6.90;1.00
1181;DHT22;579;52.046;8.532;2023-01-15T06:01:47;7.00;1.00
1181;DHT22;579;52.046;8.532;2023-01-15T06:04:14;7.00;1.00
1181;DHT22;579;52.046;8.532;2023-01-15T06:06:42;7.00;1.00
1181;DHT22;579;52.046;8.532;2023-01-15T06:09:09;7.20;1.00
1181;DHT22;579;52.046;8.532;2023-01-15T06:11:35;7.00;1.00
1181;DHT22;579;52.046;8.532;2023-01-15T06:14:01;7.00;1.00
1181;DHT22;579;52.046;8.532;2023-01-15T06:21:34;7.10;1.00
1181;DHT22;579;52.046;8.532;2023-01-15T06:24:02;7.20;1.00
1181;DHT22;579;52.046;8.532;2023-01-15T06:26:28;7.40;1.00
1181;DHT22;579;52.046;8.532;2023-01-15T06:28:56;7.40;1.00
1181;DHT22;579;52.046;8.532;2023-01-15T06:31:23;7.40;1.00
1181;DHT22;579;52.046;8.532;2023-01-15T06:33:51;7.20;1.00
1181;DHT22;579;52.046;8.532;2023-01-15T06:36:19;7.20;1.00
1181;DHT22;579;52.046;8.532;2023-01-15T06:43:52;7.20;1.00
1181;DHT22;579;52.046;8.532;2023-01-15T06:46:43;7.10;1.00
1181;DHT22;579;52.046;8.532;2023-01-15T06:49:29;7.00;1.00
1181;DHT22;579;52.046;8.532;2023-01-15T06:51:55;7.00;1.00
1181;DHT22;579;52.046;8.532;2023-01-15T06:54:22;7.10;1.00
1181;DHT22;579;52.046;8.532;2023-01-15T06:56:48;7.10;1.00
1181;DHT22;579;52.046;8.532;2023-01-15T06:59:15;7.10;1.00
1181;DHT22;579;52.046;8.532;2023-01-15T07:06:05;7.30;1.00
1181;DHT22;579;52.046;8.532;2023-01-15T07:08:32;7.10;1.00
1181;DHT22;579;52.046;8.532;2023-01-15T07:11:01;7.10;1.00
1181;DHT22;579;52.046;8.532;2023-01-15T07:13:28;7.20;1.00
1181;DHT22;579;52.046;8.532;2023-01-15T07:15:57;7.10;1.00
1181;DHT22;579;52.046;8.532;2023-01-15T07:18:24;7.10;1.00
1181;DHT22;579;52.046;8.532;2023-01-15T07:20:53;6.90;1.00
1181;DHT22;579;52.046;8.532;2023-01-15T07:27:46;7.30;1.00
1181;DHT22;579;52.046;8.532;2023-01-15T07:30:14;7.40;1.00
1181;DHT22;579;52.046;8.532;2023-01-15T07:32:40;7.50;1.00
1181;DHT22;579;52.046;8.532;2023-01-15T07:35:07;7.30;1.00
1181;DHT22;579;52.046;8.532;2023-01-15T07:37:34;7.30;1.00
1181;DHT22;579;52.046;8.532;2023-01-15T07:40:00;7.30;1.00
1181;DHT22;579;52.046;8.532;2023-01-15T07:42:27;7.30;1.00
1181;DHT22;579;52.046;8.532;2023-01-15T07:49:45;7.40;1.00
1181;DHT22;579;52.046;8.532;2023-01-15T07:52:11;7.40;1.00
1181;DHT22;579;52.046;8.532;2023-01-15T07:54:38;7.40;1.00
1181;DHT22;579;52.046;8.532;2023-01-15T07:57:05;7.20;1.00
1181;DHT22;579;52.046;8.532;2023-01-15T07:59:31;7.20;1.00
1181;DHT22;579;52.046;8.532;2023-01-15T08:01:58;7.40;1.00
1181;DHT22;579;52.046;8.532;2023-01-15T08:04:24;7.30;1.00
1181;DHT22;579;52.046;8.532;2023-01-15T08:09:32;7.40;1.00
1181;DHT22;579;52.046;8.532;2023-01-15T08:12:04;7.30;1.00
1181;DHT22;579;52.046;8.532;2023-01-15T08:14:48;7.20;1.00
1181;DHT22;579;52.046;8.532;2023-01-15T08:17:34;7.30;1.00
1181;DHT22;579;52.046;8.532;2023-01-15T08:20:03;7.10;1.00
1181;DHT22;579;52.046;8.532;2023-01-15T08:22:32;7.30;1.00
1181;DHT22;579;52.046;8.532;2023-01-15T08:28:43;7.40;1.00
1181;DHT22;579;52.046;8.532;2023-01-15T08:31:09;7.50;1.00
1181;DHT22;579;52.046;8.532;2023-01-15T08:33:36;7.40;1.00
1181;DHT22;579;52.046;8.532;2023-01-15T08:36:03;7.30;1.00
1181;DHT22;579;52.046;8.532;2023-01-15T08:38:35;7.40;1.00
1181;DHT22;579;52.046;8.532;2023-01-15T08:41:01;7.50;1.00
1181;DHT22;579;52.046;8.532;2023-01-15T08:43:29;7.70;1.00
1181;DHT22;579;52.046;8.532;2023-01-15T08:48:37;7.60;1.00
1181;DHT22;579;52.046;8.532;2023-01-15T08:51:04;7.40;1.00
1181;DHT22;579;52.046;8.532;2023-01-15T08:53:31;7.50;1.00
1181;DHT22;579;52.046;8.532;2023-01-15T08:56:12;7.50;1.00
1181;DHT22;579;52.046;8.532;2023-01-15T08:58:43;7.60;1.00
1181;DHT22;579;52.046;8.532;2023-01-15T09:01:13;7.70;1.00
1181;DHT22;579;52.046;8.532;2023-01-15T09:08:01;7.50;1.00
1181;DHT22;579;52.046;8.532;2023-01-15T09:10:29;7.40;1.00
1181;DHT22;579;52.046;8.532;2023-01-15T09:12:57;7.40;1.00
1181;DHT22;579;52.046;8.532;2023-01-15T09:15:32;7.40;1.00
1181;DHT22;579;52.046;8.532;2023-01-15T09:18:00;7.10;1.00
1181;DHT22;579;52.046;8.532;2023-01-15T09:20:28;7.00;1.00
1181;DHT22;579;52.046;8.532;2023-01-15T09:25:53;6.90;1.00
1181;DHT22;579;52.046;8.532;2023-01-15T09:28:22;6.90;1.00
1181;DHT22;579;52.046;8.532;2023-01-15T09:30:49;6.90;1.00
1181;DHT22;579;52.046;8.532;2023-01-15T09:33:16;6.90;1.00
1181;DHT22;579;52.046;8.532;2023-01-15T09:35:46;7.80;1.00
1181;DHT22;579;52.046;8.532;2023-01-15T09:38:13;6.80;1.00
1181;DHT22;579;52.046;8.532;2023-01-15T09:43:37;6.80;1.00
1181;DHT22;579;52.046;8.532;2023-01-15T09:46:10;6.80;1.00
1181;DHT22;579;52.046;8.532;2023-01-15T09:48:48;7.00;1.00
1181;DHT22;579;52.046;8.532;2023-01-15T09:51:26;7.00;1.00
1181;DHT22;579;52.046;8.532;2023-01-15T09:54:13;7.20;1.00
1181;DHT22;579;52.046;8.532;2023-01-15T09:56:47;6.90;1.00
1181;DHT22;579;52.046;8.532;2023-01-15T10:03:50;6.90;1.00
1181;DHT22;579;52.046;8.532;2023-01-15T10:06:23;7.00;1.00
1181;DHT22;579;52.046;8.532;2023-01-15T10:08:58;7.00;1.00
1181;DHT22;579;52.046;8.532;2023-01-15T10:11:38;7.00;1.00
1181;DHT22;579;52.046;8.532;2023-01-15T10:14:39;6.90;1.00
1181;DHT22;579;52.046;8.532;2023-01-15T10:17:27;7.20;1.00
1181;DHT22;579;52.046;8.532;2023-01-15T10:19:56;7.50;1.00
1181;DHT22;579;52.046;8.532;2023-01-15T10:25:58;7.50;1.00
1181;DHT22;579;52.046;8.532;2023-01-15T10:28:54;7.40;1.00
1181;DHT22;579;52.046;8.532;2023-01-15T10:31:31;7.50;1.00
1181;DHT22;579;52.046;8.532;2023-01-15T10:34:26;7.70;1.00
1181;DHT22;579;52.046;8.532;2023-01-15T10:37:04;7.60;1.00
1181;DHT22;579;52.046;8.532;2023-01-15T10:41:51;7.80;1.00
1181;DHT22;579;52.046;8.532;2023-01-15T10:44:32;7.80;1.00
1181;DHT22;579;52.046;8.532;2023-01-15T10:47:11;7.80;1.00
1181;DHT22;579;52.046;8.532;2023-01-15T10:49:41;7.80;1.00
1181;DHT22;579;52.046;8.532;2023-01-15T10:52:18;8.10;1.00
1181;DHT22;579;52.046;8.532;2023-01-15T10:55:03;8.20;1.00
1181;DHT22;579;52.046;8.532;2023-01-15T11:01:16;8.30;1.00
1181;DHT22;579;52.046;8.532;2023-01-15T11:03:45;8.20;1.00
1181;DHT22;579;52.046;8.532;2023-01-15T11:06:16;8.00;1.00
1181;DHT22;579;52.046;8.532;2023-01-15T11:08:46;8.00;1.00
1181;DHT22;579;52.046;8.532;2023-01-15T11:11:18;8.00;1.00
1181;DHT22;579;52.046;8.532;2023-01-15T11:14:08;7.90;1.00
1181;DHT22;579;52.046;8.532;2023-01-15T11:19:46;7.70;1.00
1181;DHT22;579;52.046;8.532;2023-01-15T11:22:19;7.80;1.00
1181;DHT22;579;52.046;8.532;2023-01-15T11:24:48;7.90;1.00
1181;DHT22;579;52.046;8.532;2023-01-15T11:27:21;7.90;1.00
1181;DHT22;579;52.046;8.532;2023-01-15T11:29:53;7.90;1.00
1181;DHT22;579;52.046;8.532;2023-01-15T11:32:28;7.70;1.00
1181;DHT22;579;52.046;8.532;2023-01-15T11:38:48;7.50;1.00
1181;DHT22;579;52.046;8.532;2023-01-15T11:41:19;7.80;1.00
1181;DHT22;579;52.046;8.532;2023-01-15T11:43:54;7.90;1.00
1181;DHT22;579;52.046;8.532;2023-01-15T11:46:40;7.80;1.00
1181;DHT22;579;52.046;8.532;2023-01-15T11:49:26;7.80;1.00
1181;DHT22;579;52.046;8.532;2023-01-15T11:52:13;7.80;1.00
1181;DHT22;579;52.046;8.532;2023-01-15T11:58:49;8.20;1.00
1181;DHT22;579;52.046;8.532;2023-01-15T12:01:22;8.10;1.00
1181;DHT22;579;52.046;8.532;2023-01-15T12:03:50;8.00;1.00
1181;DHT22;579;52.046;8.532;2023-01-15T12:06:19;7.80;1.00
1181;DHT22;579;52.046;8.532;2023-01-15T12:08:49;7.70;1.00
1181;DHT22;579;52.046;8.532;2023-01-15T12:11:32;7.60;1.00
1181;DHT22;579;52.046;8.532;2023-01-15T12:18:54;7.80;1.00
1181;DHT22;579;52.046;8.532;2023-01-15T12:25:00;7.80;1.00
1181;DHT22;579;52.046;8.532;2023-01-15T12:28:01;8.00;1.00
1181;DHT22;579;52.046;8.532;2023-01-15T12:30:36;8.30;1.00
1181;DHT22;579;52.046;8.532;2023-01-15T12:36:18;8.40;1.00
1181;DHT22;579;52.046;8.532;2023-01-15T12:38:50;8.10;1.00
1181;DHT22;579;52.046;8.532;2023-01-15T12:41:22;8.10;1.00
1181;DHT22;579;52.046;8.532;2023-01-15T12:44:14;8.10;1.00
1181;DHT22;579;52.046;8.532;2023-01-15T12:47:06;8.00;1.00
1181;DHT22;579;52.046;8.532;2023-01-15T12:49:43;8.00;1.00
1181;DHT22;579;52.046;8.532;2023-01-15T12:56:00;8.00;1.00
1181;DHT22;579;52.046;8.532;2023-01-15T12:58:39;7.80;1.00
1181;DHT22;579;52.046;8.532;2023-01-15T13:01:12;7.80;1.00
1181;DHT22;579;52.046;8.532;2023-01-15T13:03:50;7.70;1.00
1181;DHT22;579;52.046;8.532;2023-01-15T13:06:22;7.80;1.00
1181;DHT22;579;52.046;8.532;2023-01-15T13:08:57;7.80;1.00
1181;DHT22;579;52.046;8.532;2023-01-15T13:15:44;6.10;1.00
1181;DHT22;579;52.046;8.532;2023-01-15T13:18:22;7.60;1.00
1181;DHT22;579;52.046;8.532;2023-01-15T13:20:52;8.10;1.00
1181;DHT22;579;52.046;8.532;2023-01-15T13:23:31;7.60;1.00
1181;DHT22;579;52.046;8.532;2023-01-15T13:26:20;7.60;1.00
1181;DHT22;579;52.046;8.532;2023-01-15T13:29:18;7.80;1.00
1181;DHT22;579;52.046;8.532;2023-01-15T13:35:30;7.80;1.00
1181;DHT22;579;52.046;8.532;2023-01-15T13:38:00;7.80;1.00
1181;DHT22;579;52.046;8.532;2023-01-15T13:40:30;7.90;1.00
1181;DHT22;579;52.046;8.532;2023-01-15T13:43:01;8.00;1.00
1181;DHT22;579;52.046;8.532;2023-01-15T13:45:38;7.90;1.00
1181;DHT22;579;52.046;8.532;2023-01-15T13:48:14;8.00;1.00
1181;DHT22;579;52.046;8.532;2023-01-15T13:55:25;7.80;1.00
1181;DHT22;579;52.046;8.532;2023-01-15T13:57:55;8.10;1.00
1181;DHT22;579;52.046;8.532;2023-01-15T14:00:27;8.00;1.00
1181;DHT22;579;52.046;8.532;2023-01-15T14:02:56;7.90;1.00
1181;DHT22;579;52.046;8.532;2023-01-15T14:05:31;7.80;1.00
1181;DHT22;579;52.046;8.532;2023-01-15T14:08:13;7.90;1.00
1181;DHT22;579;52.046;8.532;2023-01-15T14:15:34;7.70;1.00
1181;DHT22;579;52.046;8.532;2023-01-15T14:18:16;7.90;1.00
1181;DHT22;579;52.046;8.532;2023-01-15T14:21:09;7.70;1.00
1181;DHT22;579;52.046;8.532;2023-01-15T14:24:01;7.70;1.00
1181;DHT22;579;52.046;8.532;2023-01-15T14:26:44;7.70;1.00
1181;DHT22;579;52.046;8.532;2023-01-15T14:29:31;7.60;1.00
1181;DHT22;579;52.046;8.532;2023-01-15T14:32:20;7.60;1.00
1181;DHT22;579;52.046;8.532;2023-01-15T14:34:54;7.70;1.00
1181;DHT22;579;52.046;8.532;2023-01-15T14:37:25;7.70;1.00
1181;DHT22;579;52.046;8.532;2023-01-15T14:39:56;7.80;1.00
1181;DHT22;579;52.046;8.532;2023-01-15T14:42:30;7.70;1.00
1181;DHT22;579;52.046;8.532;2023-01-15T14:45:23;7.80;1.00
1181;DHT22;579;52.046;8.532;2023-01-15T14:51:48;7.70;1.00
1181;DHT22;579;52.046;8.532;2023-01-15T14:54:17;7.60;1.00
1181;DHT22;579;52.046;8.532;2023-01-15T14:56:48;7.70;1.00
1181;DHT22;579;52.046;8.532;2023-01-15T14:59:20;7.70;1.00
1181;DHT22;579;52.046;8.532;2023-01-15T15:01:51;7.70;1.00
1181;DHT22;579;52.046;8.532;2023-01-15T15:04:28;7.60;1.00
1181;DHT22;579;52.046;8.532;2023-01-15T15:11:33;8.20;1.00
1181;DHT22;579;52.046;8.532;2023-01-15T15:14:20;7.80;1.00
1181;DHT22;579;52.046;8.532;2023-01-15T15:16:49;7.60;1.00
1181;DHT22;579;52.046;8.532;2023-01-15T15:19:25;7.50;1.00
1181;DHT22;579;52.046;8.532;2023-01-15T15:21:56;7.40;1.00
1181;DHT22;579;52.046;8.532;2023-01-15T15:24:29;7.60;1.00
1181;DHT22;579;52.046;8.532;2023-01-15T15:31:17;7.50;1.00
1181;DHT22;579;52.046;8.532;2023-01-15T15:33:45;7.50;1.00
1181;DHT22;579;52.046;8.532;2023-01-15T15:36:12;7.60;1.00
1181;DHT22;579;52.046;8.532;2023-01-15T15:38:51;7.60;1.00
1181;DHT22;579;52.046;8.532;2023-01-15T15:41:18;7.70;1.00
1181;DHT22;579;52.046;8.532;2023-01-15T15:44:12;7.60;1.00
1181;DHT22;579;52.046;8.532;2023-01-15T15:49:47;7.50;1.00
1181;DHT22;579;52.046;8.532;2023-01-15T15:52:19;7.60;1.00
1181;DHT22;579;52.046;8.532;2023-01-15T15:54:57;7.90;1.00
1181;DHT22;579;52.046;8.532;2023-01-15T15:57:24;7.60;1.00
1181;DHT22;579;52.046;8.532;2023-01-15T15:59:53;7.60;1.00
1181;DHT22;579;52.046;8.532;2023-01-15T16:02:23;7.50;1.00
1181;DHT22;579;52.046;8.532;2023-01-15T16:07:48;7.40;1.00
1181;DHT22;579;52.046;8.532;2023-01-15T16:10:18;7.50;1.00
1181;DHT22;579;52.046;8.532;2023-01-15T16:16:13;7.70;1.00
1181;DHT22;579;52.046;8.532;2023-01-15T16:18:51;7.60;1.00
1181;DHT22;579;52.046;8.532;2023-01-15T16:21:25;7.60;1.00
1181;DHT22;579;52.046;8.532;2023-01-15T16:26:38;7.70;1.00
1181;DHT22;579;52.046;8.532;2023-01-15T16:29:17;7.60;1.00
1181;DHT22;579;52.046;8.532;2023-01-15T16:31:47;7.70;1.00
1181;DHT22;579;52.046;8.532;2023-01-15T16:34:17;7.70;1.00
1181;DHT22;579;52.046;8.532;2023-01-15T16:36:45;7.80;1.00
1181;DHT22;579;52.046;8.532;2023-01-15T16:39:19;7.60;1.00
1181;DHT22;579;52.046;8.532;2023-01-15T16:44:37;7.70;1.00
1181;DHT22;579;52.046;8.532;2023-01-15T16:47:19;7.80;1.00
1181;DHT22;579;52.046;8.532;2023-01-15T16:49:47;7.70;1.00
1181;DHT22;579;52.046;8.532;2023-01-15T16:52:35;7.70;1.00
1181;DHT22;579;52.046;8.532;2023-01-15T16:55:33;7.70;1.00
1181;DHT22;579;52.046;8.532;2023-01-15T17:03:59;7.80;1.00
1181;DHT22;579;52.046;8.532;2023-01-15T17:06:27;7.70;1.00
1181;DHT22;579;52.046;8.532;2023-01-15T17:08:55;7.70;1.00
1181;DHT22;579;52.046;8.532;2023-01-15T17:11:24;7.70;1.00
1181;DHT22;579;52.046;8.532;2023-01-15T17:14:06;7.60;1.00
1181;DHT22;579;52.046;8.532;2023-01-15T17:16:38;7.50;1.00
1181;DHT22;579;52.046;8.532;2023-01-15T17:19:06;7.60;1.00
1181;DHT22;579;52.046;8.532;2023-01-15T17:26:37;7.50;1.00
1181;DHT22;579;52.046;8.532;2023-01-15T17:29:05;7.50;1.00
1181;DHT22;579;52.046;8.532;2023-01-15T17:31:33;7.50;1.00
1181;DHT22;579;52.046;8.532;2023-01-15T17:34:01;7.40;1.00
1181;DHT22;579;52.046;8.532;2023-01-15T17:36:29;7.40;1.00
1181;DHT22;579;52.046;8.532;2023-01-15T17:38:55;7.50;1.00
1181;DHT22;579;52.046;8.532;2023-01-15T17:41:22;7.70;1.00
1181;DHT22;579;52.046;8.532;2023-01-15T17:48:20;7.40;1.00
1181;DHT22;579;52.046;8.532;2023-01-15T17:50:47;7.40;1.00
1181;DHT22;579;52.046;8.532;2023-01-15T17:53:13;7.30;1.00
1181;DHT22;579;52.046;8.532;2023-01-15T17:55:41;7.40;1.00
1181;DHT22;579;52.046;8.532;2023-01-15T17:58:30;7.30;1.00
1181;DHT22;579;52.046;8.532;2023-01-15T18:01:17;7.40;1.00
1181;DHT22;579;52.046;8.532;2023-01-15T18:09:07;7.50;1.00
1181;DHT22;579;52.046;8.532;2023-01-15T18:11:41;7.60;1.00
1181;DHT22;579;52.046;8.532;2023-01-15T18:14:10;7.70;1.00
1181;DHT22;579;52.046;8.532;2023-01-15T18:16:41;7.60;1.00
1181;DHT22;579;52.046;8.532;2023-01-15T18:19:09;7.50;1.00
1181;DHT22;579;52.046;8.532;2023-01-15T18:21:37;7.50;1.00
1181;DHT22;579;52.046;8.532;2023-01-15T18:24:06;7.70;1.00
1181;DHT22;579;52.046;8.532;2023-01-15T18:29:14;7.40;1.00
1181;DHT22;579;52.046;8.532;2023-01-15T18:31:40;7.50;1.00
1181;DHT22;579;52.046;8.532;2023-01-15T18:34:07;7.50;1.00
1181;DHT22;579;52.046;8.532;2023-01-15T18:36:33;7.50;1.00
1181;DHT22;579;52.046;8.532;2023-01-15T18:39:00;7.50;1.00
1181;DHT22;579;52.046;8.532;2023-01-15T18:41:31;7.40;1.00
1181;DHT22;579;52.046;8.532;2023-01-15T18:44:15;7.40;1.00
1181;DHT22;579;52.046;8.532;2023-01-15T18:49:29;7.30;1.00
1181;DHT22;579;52.046;8.532;2023-01-15T18:51:56;7.50;1.00
1181;DHT22;579;52.046;8.532;2023-01-15T18:54:41;7.60;1.00
1181;DHT22;579;52.046;8.532;2023-01-15T18:57:07;7.60;1.00
1181;DHT22;579;52.046;8.532;2023-01-15T18:59:33;7.70;1.00
1181;DHT22;579;52.046;8.532;2023-01-15T19:01:59;7.60;1.00
1181;DHT22;579;52.046;8.532;2023-01-15T19:04:26;7.60;1.00
1181;DHT22;579;52.046;8.532;2023-01-15T19:09:31;8.10;1.00
1181;DHT22;579;52.046;8.532;2023-01-15T19:11:58;7.60;1.00
1181;DHT22;579;52.046;8.532;2023-01-15T19:14:24;7.60;1.00
1181;DHT22;579;52.046;8.532;2023-01-15T19:17:11;7.60;1.00
1181;DHT22;579;52.046;8.532;2023-01-15T19:19:57;7.60;1.00
1181;DHT22;579;52.046;8.532;2023-01-15T19:22:24;7.60;1.00
1181;DHT22;579;52.046;8.532;2023-01-15T19:25:10;7.50;1.00
1181;DHT22;579;52.046;8.532;2023-01-15T19:31:26;7.50;1.00
1181;DHT22;579;52.046;8.532;2023-01-15T19:34:03;7.70;1.00
1181;DHT22;579;52.046;8.532;2023-01-15T19:36:33;7.70;1.00
1181;DHT22;579;52.046;8.532;2023-01-15T19:39:00;7.70;1.00
1181;DHT22;579;52.046;8.532;2023-01-15T19:41:26;7.40;1.00
1181;DHT22;579;52.046;8.532;2023-01-15T19:44:11;7.50;1.00
1181;DHT22;579;52.046;8.532;2023-01-15T19:46:56;7.50;1.00
1181;DHT22;579;52.046;8.532;2023-01-15T19:52:21;7.40;1.00
1181;DHT22;579;52.046;8.532;2023-01-15T19:54:59;7.50;1.00
1181;DHT22;579;52.046;8.532;2023-01-15T19:57:27;7.50;1.00
1181;DHT22;579;52.046;8.532;2023-01-15T19:59:54;7.50;1.00
1181;DHT22;579;52.046;8.532;2023-01-15T20:02:21;7.50;1.00
1181;DHT22;579;52.046;8.532;2023-01-15T20:04:48;7.40;1.00
1181;DHT22;579;52.046;8.532;2023-01-15T20:07:14;7.40;1.00
1181;DHT22;579;52.046;8.532;2023-01-15T20:13:48;7.50;1.00
1181;DHT22;579;52.046;8.532;2023-01-15T20:16:16;7.40;1.00
1181;DHT22;579;52.046;8.532;2023-01-15T20:18:44;7.50;1.00
1181;DHT22;579;52.046;8.532;2023-01-15T20:21:13;7.50;1.00
1181;DHT22;579;52.046;8.532;2023-01-15T20:23:41;7.30;1.00
1181;DHT22;579;52.046;8.532;2023-01-15T20:26:09;7.40;1.00
1181;DHT22;579;52.046;8.532;2023-01-15T20:28:37;7.40;1.00
1181;DHT22;579;52.046;8.532;2023-01-15T20:35:20;7.70;1.00
1181;DHT22;579;52.046;8.532;2023-01-15T20:37:48;7.90;1.00
1181;DHT22;579;52.046;8.532;2023-01-15T20:40:16;7.70;1.00
1181;DHT22;579;52.046;8.532;2023-01-15T20:42:44;7.50;1.00
1181;DHT22;579;52.046;8.532;2023-01-15T20:45:31;7.50;1.00
1181;DHT22;579;52.046;8.532;2023-01-15T20:48:01;7.30;1.00
1181;DHT22;579;52.046;8.532;2023-01-15T20:53:34;7.50;1.00
1181;DHT22;579;52.046;8.532;2023-01-15T20:56:13;7.30;1.00
1181;DHT22;579;52.046;8.532;2023-01-15T20:58:43;7.20;1.00
1181;DHT22;579;52.046;8.532;2023-01-15T21:01:43;7.50;1.00
1181;DHT22;579;52.046;8.532;2023-01-15T21:04:13;7.40;1.00
1181;DHT22;579;52.046;8.532;2023-01-15T21:06:43;7.30;1.00
1181;DHT22;579;52.046;8.532;2023-01-15T21:12:22;7.30;1.00
1181;DHT22;579;52.046;8.532;2023-01-15T21:14:49;7.50;1.00
1181;DHT22;579;52.046;8.532;2023-01-15T21:17:15;7.80;1.00
1181;DHT22;579;52.046;8.532;2023-01-15T21:19:42;7.70;1.00
1181;DHT22;579;52.046;8.532;2023-01-15T21:22:08;7.60;1.00
1181;DHT22;579;52.046;8.532;2023-01-15T21:24:34;7.70;1.00
1181;DHT22;579;52.046;8.532;2023-01-15T21:27:00;7.60;1.00
1181;DHT22;579;52.046;8.532;2023-01-15T21:32:07;7.70;1.00
1181;DHT22;579;52.046;8.532;2023-01-15T21:34:33;7.80;1.00
1181;DHT22;579;52.046;8.532;2023-01-15T21:36:59;7.50;1.00
1181;DHT22;579;52.046;8.532;2023-01-15T21:39:26;7.50;1.00